createdAt,value
2019-02-25T04:16:38.045Z,6.31
2019-02-25T04:17:38.035Z,6.29
2019-02-25T04:18:38.023Z,6.21
2019-02-25T04:19:38.013Z,6.21
2019-02-25T04:20:38.001Z,6.09
2019-02-25T04:21:37.994Z,6.08
2019-02-25T04:22:37.981Z,6.02
2019-02-25T04:23:37.966Z,6.09
2019-02-25T04:24:37.957Z,6.02
2019-02-25T04:25:37.952Z,5.97
2019-02-25T04:26:37.938Z,6.00
2019-02-25T04:27:37.925Z,5.95
2019-02-25T04:28:37.909Z,5.91
2019-02-25T04:29:37.901Z,5.88
2019-02-25T04:30:37.892Z,5.88
2019-02-25T04:31:37.876Z,5.90
2019-02-25T04:32:37.865Z,5.88
2019-02-25T04:33:37.854Z,5.97
2019-02-25T04:34:37.847Z,6.05
2019-02-25T04:35:37.839Z,5.90
2019-02-25T04:36:37.820Z,5.87
2019-02-25T04:37:37.809Z,5.85
2019-02-25T04:38:37.806Z,5.85
2019-02-25T04:39:37.795Z,5.80
2019-02-25T04:40:37.779Z,5.88
2019-02-25T04:41:37.775Z,5.85
2019-02-25T04:42:37.766Z,5.93
2019-02-25T04:43:37.742Z,5.87
2019-02-25T04:44:37.731Z,5.88
2019-02-25T04:45:37.721Z,6.00
2019-02-25T04:46:37.713Z,6.05
2019-02-25T04:47:37.699Z,6.00
2019-02-25T04:48:37.699Z,6.11
2019-02-25T04:49:37.673Z,6.11
2019-02-25T04:50:37.678Z,6.13
2019-02-25T04:51:37.654Z,6.05
2019-02-25T04:52:37.647Z,6.03
2019-02-25T04:53:37.630Z,6.00
2019-02-25T04:54:37.617Z,5.93
2019-02-25T04:55:37.606Z,5.85
2019-02-25T04:56:37.602Z,5.82
2019-02-25T04:57:37.590Z,5.82
2019-02-25T04:58:37.573Z,6.00
2019-02-25T04:59:37.563Z,5.93
2019-02-25T05:00:37.554Z,5.87
2019-02-25T05:01:37.548Z,6.05
2019-02-25T05:02:37.535Z,5.98
2019-02-25T05:03:37.535Z,5.93
2019-02-25T05:04:37.507Z,5.95
2019-02-25T05:05:37.497Z,5.80
2019-02-25T05:06:37.483Z,5.88
2019-02-25T05:07:37.478Z,5.76
2019-02-25T05:08:37.461Z,5.77
2019-02-25T05:09:37.452Z,5.77
2019-02-25T05:10:37.438Z,5.87
2019-02-25T05:11:37.429Z,5.77
2019-02-25T05:12:37.415Z,5.75
2019-02-25T05:13:37.413Z,5.80
2019-02-25T05:14:37.393Z,5.80
2019-02-25T05:15:37.389Z,5.90
2019-02-25T05:16:37.375Z,5.84
2019-02-25T05:17:37.366Z,5.76
2019-02-25T05:18:37.356Z,5.70
2019-02-25T05:21:37.314Z,5.79
2019-02-25T05:22:37.669Z,5.75
2019-02-25T05:23:37.292Z,5.84
2019-02-25T05:24:37.284Z,5.79
2019-02-25T05:25:37.277Z,5.79
2019-02-25T05:26:37.266Z,5.77
2019-02-25T05:27:37.254Z,5.80
2019-02-25T05:28:37.236Z,5.80
2019-02-25T05:31:37.202Z,5.73
2019-02-25T05:32:37.193Z,5.72
2019-02-25T05:33:37.186Z,5.69
2019-02-25T05:34:37.170Z,5.72
2019-02-25T05:35:37.159Z,5.69
2019-02-25T05:36:37.150Z,5.76
2019-02-25T05:37:37.140Z,5.72
2019-02-25T05:38:37.126Z,5.75
2019-02-25T05:39:37.117Z,5.72
2019-02-25T05:40:37.126Z,5.77
2019-02-25T05:41:37.103Z,5.70
2019-02-25T05:42:37.086Z,5.72
2019-02-25T05:43:37.069Z,5.72
2019-02-25T05:44:37.060Z,5.65
2019-02-25T05:45:37.051Z,5.66
2019-02-25T05:46:37.045Z,5.61
2019-02-25T05:47:37.025Z,5.57
2019-02-25T05:48:37.019Z,5.55
2019-02-25T05:49:37.003Z,5.54
2019-02-25T05:50:37.008Z,5.46
2019-02-25T05:51:36.979Z,5.58
2019-02-25T05:52:36.970Z,5.61
2019-02-25T05:53:36.958Z,5.52
2019-02-25T05:54:36.947Z,5.52
2019-02-25T05:55:36.938Z,5.46
2019-02-25T05:56:36.925Z,5.49
2019-02-25T05:57:36.919Z,5.49
2019-02-25T05:58:36.902Z,5.54
2019-02-25T05:59:36.889Z,5.49
2019-02-25T06:00:36.882Z,5.52
2019-02-25T06:01:36.870Z,5.50
2019-02-25T06:02:36.855Z,5.49
2019-02-25T06:03:36.846Z,5.55
2019-02-25T06:04:36.833Z,5.61
2019-02-25T06:05:36.822Z,5.66
2019-02-25T06:06:36.811Z,5.62
2019-02-25T06:07:36.797Z,5.66
2019-02-25T06:08:36.786Z,5.65
2019-02-25T06:09:36.777Z,5.72
2019-02-25T06:10:36.779Z,5.73
2019-02-25T06:11:36.755Z,5.65
2019-02-25T06:12:36.741Z,5.69
2019-02-25T06:13:36.730Z,5.70
2019-02-25T06:14:36.728Z,5.76
2019-02-25T06:15:36.711Z,5.72
2019-02-25T06:16:36.698Z,5.69
2019-02-25T06:17:36.692Z,5.70
2019-02-25T06:18:36.678Z,5.70
2019-02-25T06:19:36.663Z,5.61
2019-02-25T06:20:36.664Z,5.66
2019-02-25T06:21:36.644Z,5.61
2019-02-25T06:22:36.630Z,5.69
2019-02-25T06:23:36.620Z,5.69
2019-02-25T06:24:36.609Z,5.77
2019-02-25T06:25:36.595Z,5.73
2019-02-25T06:26:38.604Z,5.77
2019-02-25T06:27:36.574Z,5.77
2019-02-25T06:28:36.561Z,5.76
2019-02-25T06:29:36.548Z,5.75
2019-02-25T06:30:36.542Z,5.79
2019-02-25T06:31:36.527Z,5.72
2019-02-25T06:32:36.516Z,5.80
2019-02-25T06:33:36.544Z,5.94
2019-02-25T06:34:36.511Z,5.97
2019-02-25T06:35:36.485Z,5.94
2019-02-25T06:36:36.474Z,6.08
2019-02-25T06:37:36.470Z,6.05
2019-02-25T06:38:36.452Z,6.15
2019-02-25T06:39:36.442Z,6.23
2019-02-25T06:40:36.427Z,6.23
2019-02-25T06:41:36.422Z,6.24
2019-02-25T06:42:36.405Z,6.27
2019-02-25T06:43:36.390Z,6.37
2019-02-25T06:44:36.382Z,6.36
2019-02-25T06:45:36.370Z,6.34
2019-02-25T06:46:36.361Z,6.41
2019-02-25T06:47:36.347Z,6.33
2019-02-25T06:48:36.341Z,6.37
2019-02-25T06:49:36.327Z,6.48
2019-02-25T06:50:36.323Z,6.55
2019-02-25T06:51:36.307Z,6.60
2019-02-25T06:52:36.290Z,6.72
2019-02-25T06:53:36.280Z,6.72
2019-02-25T06:54:36.274Z,6.63
2019-02-25T06:55:36.258Z,6.69
2019-02-25T06:56:36.249Z,6.78
2019-02-25T06:57:36.233Z,6.73
2019-02-25T06:58:36.225Z,6.67
2019-02-25T06:59:36.216Z,6.64
2019-02-25T07:00:36.201Z,6.62
2019-02-25T07:01:36.192Z,6.66
2019-02-25T07:02:36.178Z,6.77
2019-02-25T07:03:36.168Z,6.88
2019-02-25T07:04:36.160Z,6.99
2019-02-25T07:05:36.144Z,7.13
2019-02-25T07:06:36.143Z,7.31
2019-02-25T07:07:36.122Z,7.43
2019-02-25T07:08:36.111Z,7.64
2019-02-25T07:09:36.100Z,7.76
2019-02-25T07:10:36.092Z,7.97
2019-02-25T07:11:36.079Z,7.95
2019-02-25T07:12:36.066Z,8.16
2019-02-25T07:13:36.054Z,8.20
2019-02-25T07:14:36.052Z,8.16
2019-02-25T07:15:36.032Z,8.34
2019-02-25T07:16:36.022Z,8.52
2019-02-25T07:17:36.009Z,8.55
2019-02-25T07:18:36.000Z,8.52
2019-02-25T07:19:35.988Z,8.57
2019-02-25T07:20:35.977Z,8.42
2019-02-25T07:21:35.967Z,8.52
2019-02-25T07:22:35.953Z,8.50
2019-02-25T07:23:37.665Z,8.67
2019-02-25T07:24:35.939Z,8.63
2019-02-25T07:25:35.923Z,8.63
2019-02-25T07:26:35.907Z,8.68
2019-02-25T07:27:35.896Z,8.89
2019-02-25T07:28:36.688Z,9.07
2019-02-25T07:29:35.873Z,9.53
2019-02-25T07:30:35.864Z,9.99
2019-02-25T07:31:35.852Z,10.30
2019-02-25T07:32:35.850Z,10.67
2019-02-25T07:33:35.840Z,11.02
2019-02-25T07:34:35.828Z,11.25
2019-02-25T07:35:35.806Z,11.59
2019-02-25T07:36:35.792Z,11.87
2019-02-25T07:37:35.784Z,12.06
2019-02-25T07:38:39.499Z,12.24
2019-02-25T07:39:35.760Z,12.53
2019-02-25T07:40:35.751Z,12.80
2019-02-25T07:41:35.735Z,13.14
2019-02-25T07:42:35.755Z,13.42
2019-02-25T07:43:35.713Z,13.64
2019-02-25T07:44:35.710Z,13.85
2019-02-25T07:45:35.697Z,14.02
2019-02-25T07:46:35.683Z,14.23
2019-02-25T07:47:35.671Z,14.38
2019-02-25T07:48:35.659Z,14.61
2019-02-25T07:49:35.656Z,14.78
2019-02-25T07:50:35.638Z,14.67
2019-02-25T07:51:35.626Z,14.77
2019-02-25T07:52:35.620Z,14.96
2019-02-25T07:53:35.602Z,15.14
2019-02-25T07:54:35.593Z,15.22
2019-02-25T07:55:35.580Z,15.43
2019-02-25T07:56:35.572Z,15.52
2019-02-25T07:57:35.557Z,15.80
2019-02-25T07:58:35.585Z,15.76
2019-02-25T07:59:35.535Z,15.68
2019-02-25T08:00:35.522Z,15.76
2019-02-25T08:01:35.513Z,15.81
2019-02-25T08:02:35.502Z,15.83
2019-02-25T08:03:35.488Z,15.68
2019-02-25T08:04:35.476Z,15.88
2019-02-25T08:05:35.464Z,15.98
2019-02-25T08:06:35.459Z,15.90
2019-02-25T08:07:35.461Z,15.91
2019-02-25T08:08:35.434Z,15.77
2019-02-25T08:09:35.419Z,15.95
2019-02-25T08:10:35.424Z,16.03
2019-02-25T08:11:35.399Z,16.06
2019-02-25T08:12:35.392Z,16.05
2019-02-25T08:13:35.395Z,16.14
2019-02-25T08:14:35.406Z,16.16
2019-02-25T08:15:35.410Z,16.43
2019-02-25T08:16:35.346Z,16.53
2019-02-25T08:17:35.348Z,16.73
2019-02-25T08:18:35.356Z,16.69
2019-02-25T08:19:35.354Z,16.54
2019-02-25T08:20:35.298Z,16.69
2019-02-25T08:21:35.285Z,16.92
2019-02-25T08:22:35.297Z,17.24
2019-02-25T08:23:35.273Z,17.57
2019-02-25T08:24:35.250Z,17.53
2019-02-25T08:25:35.240Z,17.46
2019-02-25T08:26:35.229Z,17.68
2019-02-25T08:27:35.218Z,17.96
2019-02-25T08:28:35.203Z,18.04
2019-02-25T08:29:35.198Z,17.98
2019-02-25T08:30:35.187Z,17.82
2019-02-25T08:31:35.201Z,17.70
2019-02-25T08:32:35.159Z,17.49
2019-02-25T08:33:35.147Z,17.16
2019-02-25T08:34:35.142Z,17.39
2019-02-25T08:35:35.126Z,17.46
2019-02-25T08:36:35.111Z,17.75
2019-02-25T08:37:35.102Z,18.08
2019-02-25T08:38:35.090Z,18.19
2019-02-25T08:39:35.078Z,18.36
2019-02-25T08:40:35.077Z,18.22
2019-02-25T08:41:35.063Z,18.20
2019-02-25T08:42:35.052Z,18.25
2019-02-25T08:43:35.035Z,18.45
2019-02-25T08:44:35.021Z,18.61
2019-02-25T08:45:35.012Z,18.75
2019-02-25T08:46:34.998Z,18.63
2019-02-25T08:47:34.986Z,18.70
2019-02-25T08:48:34.976Z,18.75
2019-02-25T08:49:34.966Z,18.67
2019-02-25T08:50:34.955Z,18.74
2019-02-25T08:51:34.945Z,18.63
2019-02-25T08:52:34.942Z,18.85
2019-02-25T08:53:34.930Z,18.97
2019-02-25T08:54:34.914Z,19.18
2019-02-25T08:55:34.906Z,19.26
2019-02-25T08:56:34.892Z,19.48
2019-02-25T08:57:34.877Z,19.61
2019-02-25T08:58:34.865Z,19.75
2019-02-25T08:59:34.854Z,19.92
2019-02-25T09:00:34.846Z,20.15
2019-02-25T09:01:34.835Z,20.05
2019-02-25T09:02:34.819Z,19.93
2019-02-25T09:03:34.806Z,19.43
2019-02-25T09:04:34.800Z,19.34
2019-02-25T09:05:34.785Z,19.52
2019-02-25T09:06:34.777Z,19.29
2019-02-25T09:07:34.765Z,19.19
2019-02-25T09:08:34.751Z,19.63
2019-02-25T09:09:34.739Z,20.19
2019-02-25T09:10:34.730Z,20.36
2019-02-25T09:11:34.715Z,20.69
2019-02-25T09:12:34.707Z,20.91
2019-02-25T09:13:34.690Z,21.19
2019-02-25T09:14:34.685Z,21.12
2019-02-25T09:15:34.669Z,20.92
2019-02-25T09:16:34.660Z,20.85
2019-02-25T09:17:34.646Z,21.09
2019-02-25T09:18:34.647Z,21.04
2019-02-25T09:19:34.626Z,20.66
2019-02-25T09:20:34.618Z,20.69
2019-02-25T09:21:34.604Z,20.96
2019-02-25T09:22:34.597Z,20.76
2019-02-25T09:23:34.584Z,20.96
2019-02-25T09:24:34.569Z,20.91
2019-02-25T09:25:34.559Z,20.73
2019-02-25T09:26:34.547Z,20.88
2019-02-25T09:27:34.534Z,21.06
2019-02-25T09:28:34.524Z,21.28
2019-02-25T09:29:34.514Z,21.41
2019-02-25T09:30:34.503Z,21.63
2019-02-25T09:31:34.497Z,21.87
2019-02-25T09:32:34.480Z,22.20
2019-02-25T09:33:34.470Z,22.42
2019-02-25T09:34:34.460Z,22.14
2019-02-25T09:35:34.449Z,22.15
2019-02-25T09:36:34.437Z,22.12
2019-02-25T09:37:34.430Z,21.93
2019-02-25T09:38:36.412Z,21.85
2019-02-25T09:39:34.400Z,21.80
2019-02-25T09:40:34.389Z,21.92
2019-02-25T09:41:34.379Z,21.84
2019-02-25T09:42:34.384Z,22.02
2019-02-25T09:43:34.356Z,21.84
2019-02-25T09:44:34.347Z,21.85
2019-02-25T09:45:34.336Z,21.80
2019-02-25T09:46:34.327Z,22.12
2019-02-25T09:47:34.314Z,21.97
2019-02-25T09:48:34.304Z,21.99
2019-02-25T09:49:34.287Z,22.24
2019-02-25T09:50:34.283Z,22.48
2019-02-25T09:51:34.266Z,22.54
2019-02-25T09:52:34.254Z,22.67
2019-02-25T09:53:34.249Z,22.95
2019-02-25T09:54:34.229Z,23.26
2019-02-25T09:55:34.222Z,23.21
2019-02-25T09:56:34.209Z,22.89
2019-02-25T09:57:34.196Z,22.83
2019-02-25T09:58:34.184Z,22.99
2019-02-25T09:59:34.179Z,23.29
2019-02-25T10:00:34.182Z,23.35
2019-02-25T10:01:34.151Z,23.40
2019-02-25T10:02:34.140Z,23.63
2019-02-25T10:03:34.130Z,23.78
2019-02-25T10:04:34.119Z,23.87
2019-02-25T10:05:34.108Z,23.96
2019-02-25T10:06:34.099Z,23.88
2019-02-25T10:07:34.085Z,24.04
2019-02-25T10:08:34.074Z,24.21
2019-02-25T10:09:34.062Z,24.44
2019-02-25T10:10:34.058Z,24.63
2019-02-25T10:11:34.051Z,24.78
2019-02-25T10:12:34.029Z,24.80
2019-02-25T10:13:34.018Z,24.85
2019-02-25T10:14:34.013Z,24.66
2019-02-25T10:15:33.997Z,24.56
2019-02-25T10:16:34.014Z,24.80
2019-02-25T10:17:33.978Z,24.84
2019-02-25T10:18:33.962Z,24.95
2019-02-25T10:19:34.848Z,24.77
2019-02-25T10:20:33.974Z,24.58
2019-02-25T10:21:33.936Z,24.60
2019-02-25T10:22:33.947Z,24.81
2019-02-25T10:23:33.908Z,25.00
2019-02-25T10:24:33.909Z,24.99
2019-02-25T10:25:33.889Z,24.68
2019-02-25T10:26:33.879Z,24.58
2019-02-25T10:27:33.865Z,24.65
2019-02-25T10:28:33.913Z,24.90
2019-02-25T10:29:33.846Z,24.68
2019-02-25T10:30:34.032Z,24.77
2019-02-25T10:31:33.818Z,24.99
2019-02-25T10:32:33.839Z,25.40
2019-02-25T10:33:33.795Z,25.51
2019-02-25T10:34:33.797Z,25.75
2019-02-25T10:35:33.777Z,25.59
2019-02-25T10:36:33.806Z,25.74
2019-02-25T10:37:34.204Z,25.78
2019-02-25T10:38:33.738Z,25.98
2019-02-25T10:39:33.730Z,26.33
2019-02-25T10:40:33.753Z,26.57
2019-02-25T10:41:33.710Z,26.70
2019-02-25T10:42:35.582Z,26.66
2019-02-25T10:43:34.634Z,26.93
2019-02-25T10:44:34.448Z,26.98
2019-02-25T10:45:35.093Z,26.84
2019-02-25T10:46:33.652Z,26.66
2019-02-25T10:47:33.641Z,26.86
2019-02-25T10:48:33.673Z,27.16
2019-02-25T10:49:33.816Z,27.10
2019-02-25T10:50:35.822Z,27.10
2019-02-25T10:51:35.118Z,26.30
2019-02-25T10:52:33.596Z,25.61
2019-02-25T10:53:33.571Z,24.89
2019-02-25T10:54:33.562Z,24.55
2019-02-25T10:55:33.558Z,24.38
2019-02-25T10:56:33.547Z,24.51
2019-02-25T10:57:33.529Z,24.83
2019-02-25T10:58:34.369Z,25.53
2019-02-25T10:59:34.650Z,26.11
2019-02-25T11:00:35.036Z,26.64
2019-02-25T11:01:33.486Z,26.27
2019-02-25T11:02:33.480Z,26.00
2019-02-25T11:03:33.462Z,26.08
2019-02-25T11:04:33.451Z,26.12
2019-02-25T11:05:33.441Z,25.89
2019-02-25T11:06:35.504Z,25.74
2019-02-25T11:07:34.933Z,25.45
2019-02-25T11:08:35.109Z,25.58
2019-02-25T11:09:33.396Z,24.90
2019-02-25T11:10:33.383Z,24.47
2019-02-25T11:11:33.373Z,24.56
2019-02-25T11:12:33.363Z,24.80
2019-02-25T11:13:34.660Z,24.93
2019-02-25T11:14:35.732Z,25.25
2019-02-25T11:15:33.337Z,25.15
2019-02-25T11:16:33.317Z,24.92
2019-02-25T11:17:33.305Z,25.32
2019-02-25T11:18:33.298Z,25.88
2019-02-25T11:19:33.294Z,25.98
2019-02-25T11:20:35.082Z,25.82
2019-02-25T11:21:35.198Z,25.61
2019-02-25T11:22:33.252Z,25.56
2019-02-25T11:23:33.245Z,25.88
2019-02-25T11:24:33.230Z,26.25
2019-02-25T11:25:33.224Z,26.19
2019-02-25T11:26:35.185Z,26.10
2019-02-25T11:27:35.334Z,26.20
2019-02-25T11:28:34.362Z,25.75
2019-02-25T11:29:33.179Z,25.63
2019-02-25T11:30:33.165Z,25.59
2019-02-25T11:31:33.161Z,25.55
2019-02-25T11:32:33.141Z,25.17
2019-02-25T11:33:34.366Z,24.95
2019-02-25T11:34:33.617Z,24.90
2019-02-25T11:35:34.199Z,25.33
2019-02-25T11:36:33.099Z,25.55
2019-02-25T11:37:33.087Z,25.95
2019-02-25T11:38:36.687Z,25.73
2019-02-25T11:39:34.921Z,25.92
2019-02-25T11:40:34.116Z,26.41
2019-02-25T11:41:34.227Z,26.29
2019-02-25T11:42:33.037Z,26.23
2019-02-25T11:43:33.021Z,26.52
2019-02-25T11:44:33.019Z,26.75
2019-02-25T11:45:33.003Z,26.63
2019-02-25T11:46:32.993Z,26.57
2019-02-25T11:47:32.978Z,26.29
2019-02-25T11:48:32.968Z,26.30
2019-02-25T11:49:32.956Z,26.51
2019-02-25T11:50:32.946Z,26.74
2019-02-25T11:51:32.941Z,26.15
2019-02-25T11:52:32.933Z,25.92
2019-02-25T11:53:32.918Z,26.04
2019-02-25T11:54:32.911Z,26.56
2019-02-25T11:55:32.891Z,27.12
2019-02-25T11:56:32.881Z,27.37
2019-02-25T11:57:32.871Z,27.38
2019-02-25T11:58:32.865Z,27.08
2019-02-25T11:59:32.848Z,26.35
2019-02-25T12:00:32.838Z,25.78
2019-02-25T12:01:32.828Z,25.45
2019-02-25T12:02:32.813Z,25.29
2019-02-25T12:03:32.804Z,25.67
2019-02-25T12:04:32.794Z,26.11
2019-02-25T12:05:32.785Z,26.57
2019-02-25T12:06:32.770Z,26.59
2019-02-25T12:07:32.759Z,26.23
2019-02-25T12:08:32.764Z,26.47
2019-02-25T12:09:32.742Z,26.11
2019-02-25T12:10:32.728Z,26.23
2019-02-25T12:11:32.715Z,26.14
2019-02-25T12:12:32.704Z,25.98
2019-02-25T12:13:32.693Z,25.96
2019-02-25T12:14:32.682Z,26.14
2019-02-25T12:15:32.669Z,26.62
2019-02-25T12:16:32.667Z,26.48
2019-02-25T12:17:32.654Z,26.67
2019-02-25T12:18:32.637Z,26.88
2019-02-25T12:19:32.627Z,26.97
2019-02-25T12:20:32.619Z,26.78
2019-02-25T12:21:32.604Z,26.97
2019-02-25T12:22:32.592Z,27.13
2019-02-25T12:23:32.584Z,26.98
2019-02-25T12:24:32.571Z,26.88
2019-02-25T12:25:32.565Z,26.56
2019-02-25T12:26:32.552Z,26.63
2019-02-25T12:27:32.537Z,26.55
2019-02-25T12:28:32.529Z,26.63
2019-02-25T12:29:32.547Z,27.03
2019-02-25T12:30:32.505Z,27.08
2019-02-25T12:31:32.493Z,27.07
2019-02-25T12:32:32.489Z,26.70
2019-02-25T12:33:32.472Z,26.64
2019-02-25T12:34:32.461Z,26.78
2019-02-25T12:35:32.451Z,26.95
2019-02-25T12:36:32.445Z,26.63
2019-02-25T12:37:32.430Z,26.75
2019-02-25T12:38:32.423Z,26.82
2019-02-25T12:39:32.409Z,26.97
2019-02-25T12:40:32.400Z,26.63
2019-02-25T12:41:32.390Z,26.50
2019-02-25T12:42:32.373Z,26.41
2019-02-25T12:43:32.364Z,26.63
2019-02-25T12:44:32.351Z,26.66
2019-02-25T12:45:32.341Z,26.72
2019-02-25T12:46:32.333Z,26.01
2019-02-25T12:47:32.318Z,25.90
2019-02-25T12:48:32.314Z,25.64
2019-02-25T12:49:32.301Z,25.32
2019-02-25T12:50:32.293Z,25.25
2019-02-25T12:51:32.280Z,25.17
2019-02-25T12:52:32.265Z,25.35
2019-02-25T12:53:32.255Z,25.77
2019-02-25T12:54:32.245Z,26.05
2019-02-25T12:55:32.232Z,25.51
2019-02-25T12:56:32.241Z,25.63
2019-02-25T12:57:32.264Z,25.82
2019-02-25T12:58:32.198Z,25.59
2019-02-25T12:59:32.187Z,25.14
2019-02-25T13:00:32.190Z,24.58
2019-02-25T13:01:32.173Z,24.63
2019-02-25T13:02:32.158Z,24.98
2019-02-25T13:03:32.148Z,25.08
2019-02-25T13:04:32.137Z,24.43
2019-02-25T13:05:32.127Z,24.47
2019-02-25T13:06:32.116Z,24.41
2019-02-25T13:07:32.099Z,24.73
2019-02-25T13:08:32.088Z,24.81
2019-02-25T13:09:32.079Z,24.95
2019-02-25T13:10:32.064Z,25.08
2019-02-25T13:11:32.054Z,25.11
2019-02-25T13:12:32.045Z,25.32
2019-02-25T13:13:32.031Z,25.14
2019-02-25T13:14:32.022Z,25.26
2019-02-25T13:15:32.010Z,25.22
2019-02-25T13:16:32.006Z,25.02
2019-02-25T13:17:31.989Z,24.65
2019-02-25T13:18:31.981Z,24.55
2019-02-25T13:19:31.964Z,24.53
2019-02-25T13:20:31.961Z,24.65
2019-02-25T13:21:31.942Z,24.55
2019-02-25T13:22:31.931Z,24.13
2019-02-25T13:23:31.928Z,23.44
2019-02-25T13:24:32.695Z,23.25
2019-02-25T13:25:31.896Z,23.06
2019-02-25T13:26:32.272Z,23.14
2019-02-25T13:27:31.878Z,23.54
2019-02-25T13:28:33.563Z,23.96
2019-02-25T13:29:31.865Z,24.26
2019-02-25T13:30:31.844Z,24.43
2019-02-25T13:31:31.830Z,24.41
2019-02-25T13:32:31.819Z,24.38
2019-02-25T13:33:31.817Z,23.95
2019-02-25T13:34:31.796Z,23.62
2019-02-25T13:35:31.787Z,23.43
2019-02-25T13:36:31.773Z,23.11
2019-02-25T13:37:31.762Z,23.22
2019-02-25T13:38:31.781Z,23.01
2019-02-25T13:39:31.739Z,23.01
2019-02-25T13:40:31.734Z,22.51
2019-02-25T13:41:31.716Z,22.43
2019-02-25T13:42:31.706Z,22.50
2019-02-25T13:43:31.694Z,22.59
2019-02-25T13:44:31.682Z,22.47
2019-02-25T13:45:31.676Z,22.43
2019-02-25T13:46:31.666Z,22.62
2019-02-25T13:47:31.651Z,22.61
2019-02-25T13:48:31.638Z,22.70
2019-02-25T13:49:31.627Z,22.45
2019-02-25T13:50:31.618Z,22.50
2019-02-25T13:51:31.606Z,22.10
2019-02-25T13:52:31.595Z,22.14
2019-02-25T13:53:31.587Z,22.03
2019-02-25T13:54:31.572Z,22.11
2019-02-25T13:55:31.560Z,22.18
2019-02-25T13:56:31.558Z,22.26
2019-02-25T13:57:31.554Z,22.33
2019-02-25T13:58:31.559Z,22.24
2019-02-25T13:59:31.571Z,22.11
2019-02-25T14:00:31.506Z,21.95
2019-02-25T14:01:31.509Z,21.75
2019-02-25T14:02:31.508Z,21.66
2019-02-25T14:03:31.512Z,21.53
2019-02-25T14:04:31.514Z,21.47
2019-02-25T14:05:31.458Z,21.51
2019-02-25T14:06:31.462Z,21.59
2019-02-25T14:07:31.429Z,21.60
2019-02-25T14:08:31.422Z,21.71
2019-02-25T14:09:32.639Z,21.74
2019-02-25T14:10:31.404Z,21.60
2019-02-25T14:11:31.409Z,21.56
2019-02-25T14:12:31.382Z,21.30
2019-02-25T14:13:31.372Z,21.10
2019-02-25T14:14:31.364Z,20.66
2019-02-25T14:15:31.354Z,20.60
2019-02-25T14:16:31.342Z,20.57
2019-02-25T14:17:31.331Z,20.62
2019-02-25T14:18:31.322Z,20.41
2019-02-25T14:19:31.304Z,20.42
2019-02-25T14:20:31.295Z,20.23
2019-02-25T14:21:31.765Z,20.05
2019-02-25T14:22:31.271Z,19.70
2019-02-25T14:23:31.265Z,19.59
2019-02-25T14:24:31.252Z,19.37
2019-02-25T14:25:31.240Z,19.15
2019-02-25T14:26:31.232Z,19.06
2019-02-25T14:27:31.216Z,18.93
2019-02-25T14:28:31.204Z,19.06
2019-02-25T14:29:31.192Z,19.15
2019-02-25T14:30:33.413Z,19.18
2019-02-25T14:31:31.171Z,18.91
2019-02-25T14:32:31.159Z,18.86
2019-02-25T14:33:35.582Z,18.97
2019-02-25T14:34:31.135Z,19.11
2019-02-25T14:35:31.129Z,19.22
2019-02-25T14:36:31.114Z,19.12
2019-02-25T14:37:31.101Z,19.06
2019-02-25T14:38:32.294Z,19.06
2019-02-25T14:39:32.977Z,18.97
2019-02-25T14:40:32.558Z,18.86
2019-02-25T14:41:31.054Z,18.85
2019-02-25T14:42:33.513Z,18.63
2019-02-25T14:43:31.031Z,18.56
2019-02-25T14:44:33.202Z,18.26
2019-02-25T14:45:32.138Z,18.26
2019-02-25T14:46:31.000Z,18.27
2019-02-25T14:47:36.749Z,18.26
2019-02-25T14:48:55.454Z,18.08
2019-02-25T14:49:55.444Z,18.29
2019-02-25T14:50:55.427Z,18.43
2019-02-25T14:51:55.422Z,18.45
2019-02-25T14:52:55.415Z,18.30
2019-02-25T14:53:55.424Z,18.23
2019-02-25T14:54:55.383Z,18.22
2019-02-25T14:55:58.187Z,18.23
2019-02-25T14:56:57.143Z,18.14
2019-02-25T14:57:55.432Z,18.22
2019-02-25T14:58:55.342Z,18.26
2019-02-25T14:59:55.329Z,18.12
2019-02-25T15:00:55.319Z,17.92
2019-02-25T15:01:56.908Z,18.00
2019-02-25T15:02:55.295Z,17.83
2019-02-25T15:03:55.981Z,17.83
2019-02-25T15:04:55.272Z,17.86
2019-02-25T15:05:56.976Z,18.05
2019-02-25T15:06:55.248Z,18.16
2019-02-25T15:07:55.240Z,18.27
2019-02-25T15:08:55.228Z,18.36
2019-02-25T15:09:55.218Z,18.52
2019-02-25T15:10:57.712Z,18.54
2019-02-25T15:11:55.898Z,18.57
2019-02-25T15:12:58.743Z,18.74
2019-02-25T15:13:55.175Z,18.60
2019-02-25T15:14:55.161Z,18.68
2019-02-25T15:15:55.149Z,18.64
2019-02-25T15:16:56.495Z,18.66
2019-02-25T15:17:55.127Z,18.61
2019-02-25T15:18:55.115Z,18.58
2019-02-25T15:19:55.103Z,18.43
2019-02-25T15:20:56.444Z,18.48
2019-02-25T15:21:56.440Z,18.38
2019-02-25T15:22:55.070Z,18.17
2019-02-25T15:23:55.060Z,18.14
2019-02-25T15:24:55.066Z,18.12
2019-02-25T15:25:55.037Z,18.17
2019-02-25T15:26:57.215Z,18.23
2019-02-25T15:27:55.038Z,18.16
2019-02-25T15:28:56.658Z,18.14
2019-02-25T15:29:55.002Z,18.08
2019-02-25T15:30:54.980Z,18.00
2019-02-25T15:31:56.610Z,17.77
2019-02-25T15:32:58.412Z,17.64
2019-02-25T15:33:54.967Z,17.65
2019-02-25T15:34:56.785Z,17.62
2019-02-25T15:35:54.926Z,17.53
2019-02-25T15:36:56.445Z,17.39
2019-02-25T15:37:56.040Z,17.41
2019-02-25T15:38:54.892Z,17.34
2019-02-25T15:39:55.880Z,17.22
2019-02-25T15:40:56.214Z,17.24
2019-02-25T15:41:55.071Z,17.19
2019-02-25T15:42:54.851Z,17.24
2019-02-25T15:43:57.894Z,17.28
2019-02-25T15:44:55.545Z,17.25
2019-02-25T15:45:54.815Z,17.37
2019-02-25T15:46:54.804Z,17.38
2019-02-25T15:47:55.540Z,17.32
2019-02-25T15:48:54.789Z,17.32
2019-02-25T15:49:55.336Z,17.24
2019-02-25T15:50:55.463Z,17.19
2019-02-25T15:51:54.750Z,17.24
2019-02-25T15:52:54.740Z,17.35
2019-02-25T15:53:55.784Z,17.35
2019-02-25T15:54:54.717Z,17.43
2019-02-25T15:55:57.193Z,17.54
2019-02-25T15:56:54.696Z,17.65
2019-02-25T15:57:54.683Z,17.74
2019-02-25T15:58:54.674Z,17.75
2019-02-25T15:59:54.662Z,17.67
2019-02-25T16:00:54.651Z,17.62
2019-02-25T16:01:54.646Z,17.67
2019-02-25T16:02:54.633Z,17.62
2019-02-25T16:03:58.122Z,17.65
2019-02-25T16:05:19.086Z,17.57
2019-02-25T16:06:19.074Z,17.75
2019-02-25T16:07:19.063Z,17.62
2019-02-25T16:08:21.063Z,17.67
2019-02-25T16:09:21.526Z,17.56
2019-02-25T16:10:19.032Z,17.67
2019-02-25T16:11:20.811Z,17.65
2019-02-25T16:12:19.009Z,17.47
2019-02-25T16:13:19.000Z,17.14
2019-02-25T16:14:20.907Z,16.90
2019-02-25T16:15:18.976Z,16.66
2019-02-25T16:16:19.962Z,16.51
2019-02-25T16:17:18.952Z,16.50
2019-02-25T16:18:18.949Z,16.33
2019-02-25T16:19:18.932Z,16.42
2019-02-25T16:20:19.627Z,16.51
2019-02-25T16:21:18.910Z,16.33
2019-02-25T16:22:18.895Z,16.31
2019-02-25T16:23:20.180Z,16.10
2019-02-25T16:24:18.886Z,15.98
2019-02-25T16:25:18.861Z,15.87
2019-02-25T16:26:20.115Z,15.84
2019-02-25T16:27:19.426Z,15.99
2019-02-25T16:28:18.832Z,16.03
2019-02-25T16:29:18.824Z,16.13
2019-02-25T16:30:19.740Z,16.10
2019-02-25T16:31:18.800Z,16.06
2019-02-25T16:32:19.242Z,15.96
2019-02-25T16:33:18.779Z,16.03
2019-02-25T16:34:20.544Z,15.95
2019-02-25T16:35:20.879Z,15.83
2019-02-25T16:36:18.737Z,15.87
2019-02-25T16:37:19.894Z,15.90
2019-02-25T16:38:21.056Z,15.81
2019-02-25T16:39:18.703Z,15.68
2019-02-25T16:40:18.702Z,15.73
2019-02-25T16:41:27.189Z,15.65
2019-02-25T16:42:43.144Z,15.40
2019-02-25T16:43:43.341Z,15.48
2019-02-25T16:44:43.124Z,15.26
2019-02-25T16:45:46.477Z,15.24
2019-02-25T16:46:43.693Z,15.32
2019-02-25T16:47:43.092Z,15.44
2019-02-25T16:48:43.075Z,15.40
2019-02-25T16:49:43.085Z,15.51
2019-02-25T16:50:44.559Z,15.40
2019-02-25T16:51:43.040Z,15.42
2019-02-25T16:52:44.982Z,15.35
2019-02-25T16:53:43.699Z,15.40
2019-02-25T16:54:43.007Z,15.35
2019-02-25T16:55:45.060Z,15.37
2019-02-25T16:56:42.985Z,15.37
2019-02-25T16:57:43.835Z,15.37
2019-02-25T16:58:42.979Z,15.48
2019-02-25T16:59:42.953Z,15.54
2019-02-25T17:00:42.947Z,15.46
2019-02-25T17:01:42.928Z,15.42
2019-02-25T17:02:44.717Z,15.54
2019-02-25T17:03:43.800Z,15.42
2019-02-25T17:04:42.892Z,15.29
2019-02-25T17:05:45.647Z,15.19
2019-02-25T17:06:42.872Z,15.24
2019-02-25T17:07:44.320Z,15.04
2019-02-25T17:08:42.850Z,15.02
2019-02-25T17:09:42.961Z,15.07
2019-02-25T17:10:42.830Z,14.95
2019-02-25T17:11:43.925Z,15.02
2019-02-25T17:12:43.855Z,14.88
2019-02-25T17:13:42.792Z,14.82
2019-02-25T17:14:42.782Z,14.96
2019-02-25T17:15:46.050Z,14.95
2019-02-25T17:16:42.760Z,14.98
2019-02-25T17:17:42.746Z,14.95
2019-02-25T17:18:45.913Z,15.00
2019-02-25T17:19:42.728Z,14.94